createdAt,value
2018-05-17T11:42:23.129Z,44.76
2018-05-17T11:43:23.120Z,44.28
2018-05-17T11:45:18.102Z,44.28
2018-05-17T11:46:17.510Z,44.09
2018-05-17T11:48:11.901Z,43.92
2018-05-17T11:49:11.908Z,44.49
2018-05-17T11:51:06.317Z,44.42
2018-05-17T11:52:06.317Z,43.75
2018-05-17T11:54:00.713Z,43.75
2018-05-17T11:55:00.715Z,43.65
2018-05-17T11:56:55.129Z,43.85
2018-05-17T11:57:55.121Z,44.13
2018-05-17T11:59:49.521Z,44.42
2018-05-17T12:00:49.538Z,44.62
2018-05-17T12:02:43.964Z,43.75
2018-05-17T12:03:43.947Z,43.07
2018-05-17T12:05:38.357Z,42.11
2018-05-17T12:06:38.347Z,42.21
2018-05-17T12:08:32.751Z,43.10
2018-05-17T12:09:32.751Z,42.13
2018-05-17T12:11:27.259Z,41.84
2018-05-17T12:12:27.218Z,41.46
2018-05-17T12:14:21.641Z,42.03
2018-05-17T12:15:21.625Z,41.94
2018-05-17T12:17:16.031Z,42.23
2018-05-17T12:18:16.032Z,42.23
2018-05-17T12:20:10.454Z,42.03
2018-05-17T12:21:10.483Z,42.13
2018-05-17T12:23:04.932Z,41.07
2018-05-17T12:24:04.865Z,40.97
2018-05-17T12:25:59.273Z,40.78
2018-05-17T12:26:59.280Z,41.28
2018-05-17T12:28:53.702Z,42.05
2018-05-17T12:29:53.678Z,41.09
2018-05-17T12:31:48.116Z,40.90
2018-05-17T12:32:48.085Z,40.99
2018-05-17T12:34:42.479Z,40.90
2018-05-17T12:35:42.500Z,40.99
2018-05-17T12:37:36.934Z,40.99
2018-05-17T12:38:36.924Z,40.80
2018-05-17T12:40:31.321Z,40.80
2018-05-17T12:41:31.336Z,41.19
2018-05-17T12:43:25.736Z,41.48
2018-05-17T12:44:25.724Z,40.42
2018-05-17T12:46:30.797Z,39.64
2018-05-17T12:47:20.165Z,42.10
2018-05-17T12:49:14.549Z,42.39
2018-05-17T12:50:14.549Z,42.08
2018-05-17T12:52:08.972Z,42.10
2018-05-17T12:53:08.959Z,42.97
2018-05-17T12:55:03.334Z,39.89
2018-05-17T12:56:03.379Z,40.56
2018-05-17T12:57:57.759Z,40.85
2018-05-17T12:58:57.809Z,40.76
2018-05-17T13:00:52.129Z,45.90
2018-05-17T13:01:52.121Z,44.28
2018-05-17T13:03:46.540Z,44.31
2018-05-17T13:04:46.527Z,43.44
2018-05-17T13:06:40.965Z,43.34
2018-05-17T13:07:40.928Z,43.63
2018-05-17T13:09:35.326Z,43.17
2018-05-17T13:10:35.321Z,41.92
2018-05-17T13:12:29.712Z,40.19
2018-05-17T13:13:29.716Z,39.79
2018-05-17T13:15:24.121Z,38.26
2018-05-17T13:16:24.129Z,38.24
2018-05-17T13:18:18.533Z,38.54
2018-05-17T13:19:18.520Z,38.64
2018-05-17T13:21:12.912Z,38.54
2018-05-17T13:22:12.920Z,39.12
2018-05-17T13:24:07.337Z,41.14
2018-05-17T13:25:07.325Z,41.53
2018-05-17T13:27:01.748Z,41.44
2018-05-17T13:28:01.754Z,39.89
2018-05-17T13:29:56.169Z,39.79
2018-05-17T13:30:56.159Z,38.83
2018-05-17T13:32:50.549Z,39.22
2018-05-17T13:33:50.567Z,39.79
2018-05-17T13:35:44.988Z,41.03
2018-05-17T13:36:44.993Z,41.13
2018-05-17T13:38:39.381Z,41.41
2018-05-17T13:39:39.394Z,40.94
2018-05-17T13:41:33.801Z,39.03
2018-05-17T13:42:33.808Z,39.03
2018-05-17T13:44:28.251Z,39.01
2018-05-17T13:45:28.250Z,39.01
2018-05-17T13:47:22.649Z,39.20
2018-05-17T13:48:22.648Z,39.97
2018-05-17T13:50:17.034Z,42.40
2018-05-17T13:51:17.148Z,42.13
2018-05-17T13:53:11.461Z,40.26
2018-05-17T13:54:11.451Z,38.37
2018-05-17T13:56:05.841Z,37.67
2018-05-17T13:57:05.861Z,34.49
2018-05-17T13:59:00.281Z,29.77
2018-05-17T14:00:00.270Z,28.90
2018-05-17T14:01:54.699Z,28.81
2018-05-17T14:02:54.798Z,27.94
2018-05-17T14:04:49.135Z,27.46
2018-05-17T14:05:49.128Z,27.76
2018-05-17T14:07:43.551Z,27.28
2018-05-17T14:08:43.535Z,26.71
2018-05-17T14:10:37.943Z,30.75
2018-05-17T14:11:37.956Z,32.84
2018-05-17T14:13:32.368Z,35.80
2018-05-17T14:14:32.357Z,36.36
2018-05-17T14:16:26.751Z,37.23
2018-05-17T14:17:26.763Z,38.18
2018-05-17T14:19:21.174Z,38.66
2018-05-17T14:20:21.168Z,38.85
2018-05-17T14:22:15.555Z,39.24
2018-05-17T14:23:15.577Z,39.34
2018-05-17T14:25:10.000Z,39.14
2018-05-17T14:26:09.984Z,39.04
2018-05-17T14:28:04.389Z,39.04
2018-05-17T14:29:04.392Z,38.45
2018-05-17T14:30:58.820Z,39.03
2018-05-17T14:31:58.797Z,39.14
2018-05-17T14:38:01.222Z,38.00
2018-05-17T17:17:18.843Z,47.09
2018-05-17T17:18:18.825Z,42.15
2018-05-17T17:20:13.197Z,42.32
2018-05-17T17:21:13.313Z,41.36
2018-05-17T17:23:07.604Z,42.03
2018-05-17T17:24:07.601Z,41.27
2018-05-17T17:26:01.998Z,41.48
2018-05-17T17:27:01.988Z,41.96
2018-05-17T17:28:56.393Z,45.21
2018-05-17T17:29:56.395Z,42.90
2018-05-17T17:31:50.786Z,41.14
2018-05-17T17:32:50.785Z,41.24
2018-05-17T17:34:45.179Z,41.63
2018-05-17T17:35:45.191Z,41.14
2018-05-17T17:37:39.598Z,42.02
2018-05-17T17:38:39.598Z,42.02
2018-05-17T17:40:34.029Z,41.44
2018-05-17T17:41:34.010Z,41.80
2018-05-17T17:43:28.406Z,41.99
2018-05-17T17:44:28.431Z,41.89
2018-05-17T17:46:22.839Z,43.05
2018-05-17T17:47:22.825Z,43.15
2018-05-17T17:49:17.208Z,42.69
2018-05-17T17:50:17.224Z,42.86
2018-05-17T17:52:11.660Z,42.49
2018-05-17T17:53:11.647Z,42.40
2018-05-17T17:55:06.084Z,41.82
2018-05-17T17:56:06.087Z,42.13
2018-05-17T17:58:00.540Z,41.27
2018-05-17T17:59:00.602Z,41.55
2018-05-17T18:00:54.946Z,41.17
2018-05-17T18:01:54.960Z,41.19
2018-05-17T18:03:49.371Z,41.07
2018-05-17T18:04:49.360Z,40.99
2018-05-17T18:06:43.758Z,40.90
2018-05-17T18:07:43.780Z,40.90
2018-05-17T18:09:38.225Z,40.90
2018-05-17T18:10:38.215Z,40.90
2018-05-17T18:12:32.892Z,40.99
2018-05-17T18:13:32.654Z,40.99
2018-05-17T18:15:27.046Z,40.90
2018-05-17T18:16:27.070Z,40.80
2018-05-17T18:18:21.476Z,40.80
2018-05-17T18:19:21.475Z,40.90
2018-05-17T18:21:15.864Z,41.09
2018-05-17T18:22:15.900Z,41.19
2018-05-17T18:24:10.363Z,41.28
2018-05-17T18:25:10.283Z,41.19
2018-05-17T18:27:04.933Z,41.28
2018-05-17T18:28:04.942Z,41.48
2018-05-17T18:29:59.379Z,41.09
2018-05-17T18:30:59.360Z,40.80
2018-05-17T18:32:53.768Z,41.57
2018-05-17T18:33:53.828Z,41.96
2018-05-17T18:35:48.183Z,41.28
2018-05-17T18:36:48.184Z,41.96
2018-05-17T18:38:41.659Z,41.40
2018-05-17T18:39:41.684Z,41.67
2018-05-17T18:41:36.103Z,41.50
2018-05-17T18:42:36.080Z,41.48
2018-05-17T18:44:30.487Z,41.28
2018-05-17T18:45:30.498Z,41.67
2018-05-17T18:47:24.910Z,42.27
2018-05-17T18:48:24.906Z,42.27
2018-05-17T18:50:19.886Z,42.05
2018-05-17T18:51:19.310Z,41.98
2018-05-17T18:53:13.740Z,42.05
2018-05-17T18:54:13.715Z,42.05
2018-05-17T18:56:07.162Z,42.08
2018-05-17T18:57:07.172Z,42.18
2018-05-17T18:59:01.545Z,42.18
2018-05-17T19:00:01.577Z,42.08
2018-05-17T19:01:55.997Z,41.88
2018-05-17T19:02:55.973Z,42.18
2018-05-17T19:04:50.371Z,42.25
2018-05-17T19:05:50.386Z,42.05
2018-05-17T19:07:44.816Z,41.96
2018-05-17T19:08:44.845Z,42.18
2018-05-17T19:10:39.221Z,42.18
2018-05-17T19:11:39.247Z,42.35
2018-05-17T19:13:33.619Z,42.25
2018-05-17T19:14:33.628Z,42.54
2018-05-17T19:16:28.016Z,42.44
2018-05-17T19:17:28.026Z,42.27
2018-05-17T19:19:22.453Z,42.44
2018-05-17T19:20:22.473Z,42.56
2018-05-17T19:22:16.864Z,42.54
2018-05-17T19:23:16.864Z,42.54
2018-05-17T19:25:11.274Z,42.46
2018-05-17T19:26:11.309Z,42.54
2018-05-17T19:28:05.707Z,42.36
2018-05-17T19:29:05.723Z,42.44
2018-05-17T19:31:00.152Z,42.44
2018-05-17T19:32:00.140Z,42.54
2018-05-17T19:33:54.580Z,42.73
2018-05-17T19:34:54.574Z,42.54
2018-05-17T19:36:48.984Z,42.56
2018-05-17T19:37:48.985Z,42.75
2018-05-17T19:39:43.385Z,42.73
2018-05-17T19:40:43.408Z,42.36
2018-05-17T19:42:37.817Z,42.75
2018-05-17T19:43:37.824Z,42.85
2018-05-17T19:45:32.200Z,42.73
2018-05-17T19:46:32.219Z,42.73
2018-05-17T19:48:26.665Z,42.63
2018-05-17T19:49:26.700Z,42.66
2018-05-17T19:51:21.036Z,42.94
2018-05-17T19:52:21.054Z,42.93
2018-05-17T19:54:15.488Z,42.73
2018-05-17T19:55:15.468Z,42.75
2018-05-17T19:57:09.861Z,42.75
2018-05-17T19:58:09.892Z,43.14
2018-05-17T20:00:04.301Z,43.02
2018-05-17T20:01:04.292Z,42.93
2018-05-17T20:02:58.681Z,43.12
2018-05-17T20:03:58.708Z,43.14
2018-05-17T20:05:53.125Z,43.21
2018-05-17T20:06:53.116Z,43.24
2018-05-17T20:08:47.542Z,43.31
2018-05-17T20:09:47.522Z,43.12
2018-05-17T20:11:41.915Z,43.24
2018-05-17T20:12:41.924Z,43.31
2018-05-17T20:14:36.329Z,43.12
2018-05-17T20:15:36.345Z,43.14
2018-05-17T20:17:30.736Z,43.12
2018-05-17T20:18:30.732Z,43.81
2018-05-17T20:20:25.140Z,43.52
2018-05-17T20:21:25.151Z,43.50
2018-05-17T20:23:19.637Z,43.60
2018-05-17T20:24:19.664Z,43.50
2018-05-17T20:26:14.085Z,43.50
2018-05-17T20:27:14.065Z,43.52
2018-05-17T20:29:08.507Z,43.50
2018-05-17T20:30:08.487Z,43.98
2018-05-17T20:32:02.904Z,43.89
2018-05-17T20:33:02.901Z,43.81
2018-05-17T20:34:57.313Z,43.41
2018-05-17T20:35:57.323Z,43.72
2018-05-17T20:37:51.712Z,43.50
2018-05-17T20:38:51.711Z,43.52
2018-05-17T20:40:46.198Z,43.52
2018-05-17T20:41:46.140Z,43.81
2018-05-17T20:43:40.565Z,43.91
2018-05-17T20:44:40.564Z,43.62
2018-05-17T20:46:34.992Z,43.89
2018-05-17T20:47:34.985Z,43.89
2018-05-17T20:49:29.369Z,43.91
2018-05-17T20:50:29.381Z,43.98
2018-05-17T20:52:23.801Z,43.72
2018-05-17T20:53:23.788Z,44.08
2018-05-17T20:55:18.286Z,43.98
2018-05-17T20:56:18.192Z,43.89
2018-05-17T20:58:12.619Z,43.72
2018-05-17T20:59:12.665Z,43.89
2018-05-17T21:01:07.015Z,43.60
2018-05-17T21:02:07.038Z,43.98
2018-05-17T21:04:01.430Z,43.98
2018-05-17T21:05:01.440Z,43.98
2018-05-17T21:06:55.825Z,44.27
2018-05-17T21:07:55.851Z,44.18
2018-05-17T21:09:50.289Z,44.08
2018-05-17T21:10:50.270Z,44.27
2018-05-17T21:12:44.744Z,44.08
2018-05-17T21:13:44.678Z,44.18
2018-05-17T21:15:39.081Z,44.27
2018-05-17T21:16:39.075Z,44.18
2018-05-17T21:18:33.509Z,44.56
2018-05-17T21:19:33.481Z,44.56
2018-05-17T21:21:27.902Z,44.46
2018-05-17T21:22:27.898Z,44.46
2018-05-17T21:24:22.331Z,44.46
2018-05-17T21:25:22.324Z,44.66
2018-05-17T21:27:16.774Z,44.56
2018-05-17T21:28:16.745Z,44.56
2018-05-17T21:30:11.150Z,44.46
2018-05-17T21:31:11.142Z,44.37
2018-05-17T21:33:05.547Z,44.46
2018-05-17T21:34:05.655Z,44.46
2018-05-17T21:35:59.980Z,44.37
2018-05-17T21:36:59.990Z,44.37
2018-05-17T21:38:54.368Z,44.37
2018-05-17T21:39:54.387Z,44.46
2018-05-17T21:41:48.796Z,44.37
2018-05-17T21:42:48.787Z,44.56
2018-05-17T21:44:43.187Z,44.27
2018-05-17T21:45:43.223Z,44.56
2018-05-17T21:47:37.635Z,44.66
2018-05-17T21:48:37.625Z,44.46
2018-05-17T21:50:32.026Z,44.56
2018-05-17T21:51:32.040Z,44.66
2018-05-17T21:53:26.466Z,44.76
2018-05-17T21:54:26.459Z,44.56
2018-05-17T21:56:20.854Z,44.95
2018-05-17T21:57:20.873Z,44.56
2018-05-17T21:59:15.291Z,44.66
2018-05-17T22:00:15.284Z,44.85
2018-05-17T22:02:09.775Z,44.95
2018-05-17T22:03:09.710Z,44.95
2018-05-17T22:05:04.166Z,44.56
2018-05-17T22:06:04.139Z,44.95
2018-05-17T22:07:58.577Z,44.85
2018-05-17T22:08:58.567Z,44.66
2018-05-17T22:10:52.956Z,44.76
2018-05-17T22:11:52.976Z,44.56
